sensor_id;sensor_type;location;lat;lon;timestamp;P1;durP1;ratioP1;P2;durP2;ratioP2
16916;SDS011;8575;52.418;13.492;2022-08-21T00:00:00;912.75;;;851.25;;
16916;SDS011;8575;52.418;13.492;2022-08-21T00:00:22;917.92;;;856.25;;
16916;SDS011;8575;52.418;13.492;2022-08-21T00:00:46;920.78;;;858.88;;
16916;SDS011;8575;52.418;13.492;2022-08-21T00:01:09;906.92;;;845.50;;
16916;SDS011;8575;52.418;13.492;2022-08-21T00:01:33;921.53;;;859.63;;
16916;SDS011;8575;52.418;13.492;2022-08-21T00:01:55;920.72;;;858.88;;
16916;SDS011;8575;52.418;13.492;2022-08-21T00:02:18;928.83;;;866.72;;
16916;SDS011;8575;52.418;13.492;2022-08-21T00:02:44;923.53;;;861.53;;
16916;SDS011;8575;52.418;13.492;2022-08-21T00:03:07;921.60;;;859.67;;
16916;SDS011;8575;52.418;13.492;2022-08-21T00:03:29;922.40;;;860.53;;
16916;SDS011;8575;52.418;13.492;2022-08-21T00:03:51;897.63;;;836.50;;
16916;SDS011;8575;52.418;13.492;2022-08-21T00:04:12;923.67;;;861.58;;
16916;SDS011;8575;52.418;13.492;2022-08-21T00:04:34;919.70;;;857.80;;
16916;SDS011;8575;52.418;13.492;2022-08-21T00:04:55;912.13;;;850.35;;
16916;SDS011;8575;52.418;13.492;2022-08-21T00:05:18;908.33;;;846.88;;
16916;SDS011;8575;52.418;13.492;2022-08-21T00:05:41;915.72;;;854.03;;
16916;SDS011;8575;52.418;13.492;2022-08-21T00:06:03;926.08;;;863.97;;
16916;SDS011;8575;52.418;13.492;2022-08-21T00:06:25;914.60;;;852.97;;
16916;SDS011;8575;52.418;13.492;2022-08-21T00:06:47;915.13;;;853.45;;
16916;SDS011;8575;52.418;13.492;2022-08-21T00:07:09;902.67;;;841.17;;
16916;SDS011;8575;52.418;13.492;2022-08-21T00:07:30;917.33;;;855.47;;
16916;SDS011;8575;52.418;13.492;2022-08-21T00:07:52;925.00;;;863.00;;
16916;SDS011;8575;52.418;13.492;2022-08-21T00:08:15;915.92;;;854.10;;
16916;SDS011;8575;52.418;13.492;2022-08-21T00:08:37;909.28;;;847.83;;
16916;SDS011;8575;52.418;13.492;2022-08-21T00:08:58;903.70;;;842.35;;
16916;SDS011;8575;52.418;13.492;2022-08-21T00:09:20;903.25;;;842.00;;
16916;SDS011;8575;52.418;13.492;2022-08-21T00:09:41;909.92;;;848.63;;
16916;SDS011;8575;52.418;13.492;2022-08-21T00:10:03;916.10;;;854.55;;
16916;SDS011;8575;52.418;13.492;2022-08-21T00:10:27;907.72;;;846.42;;
16916;SDS011;8575;52.418;13.492;2022-08-21T00:10:49;900.40;;;839.30;;
16916;SDS011;8575;52.418;13.492;2022-08-21T00:11:10;906.70;;;845.33;;
16916;SDS011;8575;52.418;13.492;2022-08-21T00:11:33;892.90;;;832.00;;
16916;SDS011;8575;52.418;13.492;2022-08-21T00:11:55;881.55;;;820.90;;
16916;SDS011;8575;52.418;13.492;2022-08-21T00:12:16;876.65;;;816.13;;
16916;SDS011;8575;52.418;13.492;2022-08-21T00:12:38;880.17;;;819.63;;
16916;SDS011;8575;52.418;13.492;2022-08-21T00:13:00;888.38;;;827.50;;
16916;SDS011;8575;52.418;13.492;2022-08-21T00:13:23;889.80;;;828.90;;
16916;SDS011;8575;52.418;13.492;2022-08-21T00:13:44;893.70;;;832.80;;
16916;SDS011;8575;52.418;13.492;2022-08-21T00:14:06;894.17;;;833.05;;
16916;SDS011;8575;52.418;13.492;2022-08-21T00:14:28;891.05;;;830.13;;
16916;SDS011;8575;52.418;13.492;2022-08-21T00:14:50;883.33;;;822.72;;
16916;SDS011;8575;52.418;13.492;2022-08-21T00:15:12;899.88;;;838.70;;
16916;SDS011;8575;52.418;13.492;2022-08-21T00:15:35;909.33;;;847.83;;
16916;SDS011;8575;52.418;13.492;2022-08-21T00:15:58;913.22;;;851.63;;
16916;SDS011;8575;52.418;13.492;2022-08-21T00:16:20;918.70;;;856.90;;
16916;SDS011;8575;52.418;13.492;2022-08-21T00:16:41;926.78;;;864.63;;
16916;SDS011;8575;52.418;13.492;2022-08-21T00:17:03;930.65;;;868.22;;
16916;SDS011;8575;52.418;13.492;2022-08-21T00:17:25;937.00;;;874.45;;
16916;SDS011;8575;52.418;13.492;2022-08-21T00:17:47;915.97;;;854.17;;
16916;SDS011;8575;52.418;13.492;2022-08-21T00:18:09;919.70;;;857.88;;
16916;SDS011;8575;52.418;13.492;2022-08-21T00:18:31;932.70;;;870.45;;
16916;SDS011;8575;52.418;13.492;2022-08-21T00:18:52;938.65;;;876.15;;
16916;SDS011;8575;52.418;13.492;2022-08-21T00:19:14;927.10;;;865.05;;
16916;SDS011;8575;52.418;13.492;2022-08-21T00:19:35;921.65;;;859.75;;
16916;SDS011;8575;52.418;13.492;2022-08-21T00:19:57;927.63;;;865.53;;
16916;SDS011;8575;52.418;13.492;2022-08-21T00:20:18;929.45;;;867.30;;
16916;SDS011;8575;52.418;13.492;2022-08-21T00:20:41;935.17;;;872.78;;
16916;SDS011;8575;52.418;13.492;2022-08-21T00:21:03;910.38;;;848.80;;
16916;SDS011;8575;52.418;13.492;2022-08-21T00:21:25;916.35;;;854.72;;
16916;SDS011;8575;52.418;13.492;2022-08-21T00:21:46;928.65;;;866.55;;
16916;SDS011;8575;52.418;13.492;2022-08-21T00:22:08;939.30;;;876.70;;
16916;SDS011;8575;52.418;13.492;2022-08-21T00:22:30;931.00;;;868.83;;
16916;SDS011;8575;52.418;13.492;2022-08-21T00:22:51;907.53;;;846.08;;
16916;SDS011;8575;52.418;13.492;2022-08-21T00:23:12;903.88;;;842.58;;
16916;SDS011;8575;52.418;13.492;2022-08-21T00:23:35;922.22;;;860.33;;
16916;SDS011;8575;52.418;13.492;2022-08-21T00:23:56;912.92;;;851.28;;
16916;SDS011;8575;52.418;13.492;2022-08-21T00:24:17;912.55;;;850.83;;
16916;SDS011;8575;52.418;13.492;2022-08-21T00:24:39;901.00;;;839.72;;
16916;SDS011;8575;52.418;13.492;2022-08-21T00:25:02;892.22;;;831.15;;
16916;SDS011;8575;52.418;13.492;2022-08-21T00:25:24;881.42;;;820.70;;
16916;SDS011;8575;52.418;13.492;2022-08-21T00:25:47;871.78;;;811.50;;
16916;SDS011;8575;52.418;13.492;2022-08-21T00:26:09;886.20;;;825.33;;
16916;SDS011;8575;52.418;13.492;2022-08-21T00:26:31;876.72;;;816.22;;
16916;SDS011;8575;52.418;13.492;2022-08-21T00:26:53;877.92;;;817.38;;
16916;SDS011;8575;52.418;13.492;2022-08-21T00:27:14;887.47;;;826.28;;
16916;SDS011;8575;52.418;13.492;2022-08-21T00:27:36;891.92;;;830.95;;
16916;SDS011;8575;52.418;13.492;2022-08-21T00:28:00;893.13;;;832.15;;
16916;SDS011;8575;52.418;13.492;2022-08-21T00:28:22;895.35;;;834.30;;
16916;SDS011;8575;52.418;13.492;2022-08-21T00:28:43;871.90;;;811.53;;
16916;SDS011;8575;52.418;13.492;2022-08-21T00:29:06;881.78;;;821.05;;
16916;SDS011;8575;52.418;13.492;2022-08-21T00:29:27;885.40;;;824.60;;
16916;SDS011;8575;52.418;13.492;2022-08-21T00:29:49;906.63;;;845.20;;
16916;SDS011;8575;52.418;13.492;2022-08-21T00:30:11;891.83;;;830.85;;
16916;SDS011;8575;52.418;13.492;2022-08-21T00:30:34;897.65;;;836.53;;
16916;SDS011;8575;52.418;13.492;2022-08-21T00:30:55;919.83;;;857.92;;
16916;SDS011;8575;52.418;13.492;2022-08-21T00:31:18;914.33;;;852.53;;
16916;SDS011;8575;52.418;13.492;2022-08-21T00:31:39;923.50;;;861.53;;
16916;SDS011;8575;52.418;13.492;2022-08-21T00:32:00;938.63;;;875.90;;
16916;SDS011;8575;52.418;13.492;2022-08-21T00:32:22;941.13;;;878.47;;
16916;SDS011;8575;52.418;13.492;2022-08-21T00:32:44;936.83;;;874.30;;
16916;SDS011;8575;52.418;13.492;2022-08-21T00:33:06;931.25;;;869.03;;
16916;SDS011;8575;52.418;13.492;2022-08-21T00:33:29;923.70;;;861.78;;
16916;SDS011;8575;52.418;13.492;2022-08-21T00:33:50;934.10;;;871.78;;
16916;SDS011;8575;52.418;13.492;2022-08-21T00:34:12;939.15;;;876.55;;
16916;SDS011;8575;52.418;13.492;2022-08-21T00:34:34;955.47;;;892.28;;
16916;SDS011;8575;52.418;13.492;2022-08-21T00:34:56;950.95;;;888.00;;
16916;SDS011;8575;52.418;13.492;2022-08-21T00:35:18;927.95;;;865.78;;
16916;SDS011;8575;52.418;13.492;2022-08-21T00:35:43;918.25;;;856.65;;
16916;SDS011;8575;52.418;13.492;2022-08-21T00:36:04;914.60;;;853.00;;
16916;SDS011;8575;52.418;13.492;2022-08-21T00:36:27;942.28;;;879.80;;
16916;SDS011;8575;52.418;13.492;2022-08-21T00:36:48;945.95;;;883.22;;
16916;SDS011;8575;52.418;13.492;2022-08-21T00:37:10;927.20;;;864.85;;
16916;SDS011;8575;52.418;13.492;2022-08-21T00:37:31;922.47;;;860.58;;
16916;SDS011;8575;52.418;13.492;2022-08-21T00:37:52;931.40;;;869.20;;
16916;SDS011;8575;52.418;13.492;2022-08-21T00:38:15;931.50;;;869.25;;
16916;SDS011;8575;52.418;13.492;2022-08-21T00:38:36;923.65;;;861.70;;
16916;SDS011;8575;52.418;13.492;2022-08-21T00:38:57;930.50;;;868.38;;
16916;SDS011;8575;52.418;13.492;2022-08-21T00:39:20;933.40;;;871.03;;
16916;SDS011;8575;52.418;13.492;2022-08-21T00:39:41;934.80;;;872.45;;
16916;SDS011;8575;52.418;13.492;2022-08-21T00:40:03;919.83;;;857.95;;
16916;SDS011;8575;52.418;13.492;2022-08-21T00:40:26;908.60;;;847.13;;
16916;SDS011;8575;52.418;13.492;2022-08-21T00:40:53;912.22;;;850.70;;
16916;SDS011;8575;52.418;13.492;2022-08-21T00:41:15;911.40;;;849.90;;
16916;SDS011;8575;52.418;13.492;2022-08-21T00:41:37;915.55;;;853.70;;
16916;SDS011;8575;52.418;13.492;2022-08-21T00:41:59;896.17;;;834.95;;
16916;SDS011;8575;52.418;13.492;2022-08-21T00:42:21;889.05;;;828.20;;
16916;SDS011;8575;52.418;13.492;2022-08-21T00:42:43;892.70;;;831.80;;
16916;SDS011;8575;52.418;13.492;2022-08-21T00:43:05;888.00;;;827.10;;
16916;SDS011;8575;52.418;13.492;2022-08-21T00:43:28;899.72;;;838.40;;
16916;SDS011;8575;52.418;13.492;2022-08-21T00:43:51;887.88;;;826.95;;
16916;SDS011;8575;52.418;13.492;2022-08-21T00:44:13;899.95;;;838.58;;
16916;SDS011;8575;52.418;13.492;2022-08-21T00:44:35;907.97;;;846.58;;
16916;SDS011;8575;52.418;13.492;2022-08-21T00:44:56;914.92;;;853.17;;
16916;SDS011;8575;52.418;13.492;2022-08-21T00:45:18;920.40;;;858.42;;
16916;SDS011;8575;52.418;13.492;2022-08-21T00:45:40;923.08;;;861.15;;
16916;SDS011;8575;52.418;13.492;2022-08-21T00:46:02;929.63;;;867.47;;
16916;SDS011;8575;52.418;13.492;2022-08-21T00:46:24;939.47;;;876.97;;
16916;SDS011;8575;52.418;13.492;2022-08-21T00:46:45;938.30;;;875.88;;
16916;SDS011;8575;52.418;13.492;2022-08-21T00:47:07;939.97;;;877.22;;
16916;SDS011;8575;52.418;13.492;2022-08-21T00:47:29;926.15;;;864.05;;
16916;SDS011;8575;52.418;13.492;2022-08-21T00:47:50;916.47;;;854.80;;
16916;SDS011;8575;52.418;13.492;2022-08-21T00:48:12;922.83;;;860.83;;
16916;SDS011;8575;52.418;13.492;2022-08-21T00:48:35;927.92;;;865.80;;
16916;SDS011;8575;52.418;13.492;2022-08-21T00:48:56;940.58;;;878.00;;
16916;SDS011;8575;52.418;13.492;2022-08-21T00:49:17;936.45;;;874.03;;
16916;SDS011;8575;52.418;13.492;2022-08-21T00:49:39;941.05;;;878.60;;
16916;SDS011;8575;52.418;13.492;2022-08-21T00:50:01;946.35;;;883.63;;
16916;SDS011;8575;52.418;13.492;2022-08-21T00:50:26;933.97;;;871.50;;
16916;SDS011;8575;52.418;13.492;2022-08-21T00:50:50;921.53;;;859.63;;
16916;SDS011;8575;52.418;13.492;2022-08-21T00:51:19;920.13;;;858.20;;
16916;SDS011;8575;52.418;13.492;2022-08-21T00:51:45;910.15;;;848.63;;
16916;SDS011;8575;52.418;13.492;2022-08-21T00:52:10;914.08;;;852.40;;
16916;SDS011;8575;52.418;13.492;2022-08-21T00:52:34;936.40;;;873.95;;
16916;SDS011;8575;52.418;13.492;2022-08-21T00:52:56;928.13;;;865.92;;
16916;SDS011;8575;52.418;13.492;2022-08-21T00:53:19;924.13;;;862.15;;
16916;SDS011;8575;52.418;13.492;2022-08-21T00:53:41;898.50;;;837.33;;
16916;SDS011;8575;52.418;13.492;2022-08-21T00:54:04;913.40;;;851.65;;
16916;SDS011;8575;52.418;13.492;2022-08-21T00:54:27;911.45;;;849.92;;
16916;SDS011;8575;52.418;13.492;2022-08-21T00:54:51;917.88;;;856.03;;
16916;SDS011;8575;52.418;13.492;2022-08-21T00:55:14;921.25;;;859.30;;
16916;SDS011;8575;52.418;13.492;2022-08-21T00:55:37;898.58;;;837.45;;
16916;SDS011;8575;52.418;13.492;2022-08-21T00:56:00;903.10;;;841.85;;
16916;SDS011;8575;52.418;13.492;2022-08-21T00:56:24;913.13;;;851.60;;
16916;SDS011;8575;52.418;13.492;2022-08-21T00:56:46;918.17;;;856.45;;
16916;SDS011;8575;52.418;13.492;2022-08-21T00:57:10;932.63;;;870.35;;
16916;SDS011;8575;52.418;13.492;2022-08-21T00:57:38;928.88;;;866.85;;
16916;SDS011;8575;52.418;13.492;2022-08-21T00:58:03;910.05;;;848.63;;
16916;SDS011;8575;52.418;13.492;2022-08-21T00:58:28;926.60;;;864.65;;
16916;SDS011;8575;52.418;13.492;2022-08-21T00:58:51;939.25;;;876.88;;
16916;SDS011;8575;52.418;13.492;2022-08-21T00:59:13;922.42;;;860.55;;
16916;SDS011;8575;52.418;13.492;2022-08-21T00:59:35;922.17;;;860.28;;
16916;SDS011;8575;52.418;13.492;2022-08-21T01:00:00;934.33;;;871.95;;
16916;SDS011;8575;52.418;13.492;2022-08-21T01:00:24;938.35;;;875.80;;
16916;SDS011;8575;52.418;13.492;2022-08-21T01:00:49;911.88;;;850.22;;
16916;SDS011;8575;52.418;13.492;2022-08-21T01:01:11;919.33;;;857.33;;
16916;SDS011;8575;52.418;13.492;2022-08-21T01:01:34;927.58;;;865.40;;
16916;SDS011;8575;52.418;13.492;2022-08-21T01:01:55;915.83;;;853.88;;
16916;SDS011;8575;52.418;13.492;2022-08-21T01:02:17;903.75;;;842.15;;
16916;SDS011;8575;52.418;13.492;2022-08-21T01:02:39;906.03;;;844.63;;
16916;SDS011;8575;52.418;13.492;2022-08-21T01:03:01;903.60;;;842.15;;
16916;SDS011;8575;52.418;13.492;2022-08-21T01:03:26;890.10;;;829.15;;
16916;SDS011;8575;52.418;13.492;2022-08-21T01:03:47;896.67;;;835.50;;
16916;SDS011;8575;52.418;13.492;2022-08-21T01:04:09;897.22;;;836.10;;
16916;SDS011;8575;52.418;13.492;2022-08-21T01:04:30;893.25;;;832.25;;
16916;SDS011;8575;52.418;13.492;2022-08-21T01:04:51;891.38;;;830.47;;
16916;SDS011;8575;52.418;13.492;2022-08-21T01:05:13;900.20;;;838.72;;
16916;SDS011;8575;52.418;13.492;2022-08-21T01:05:35;902.47;;;841.03;;
16916;SDS011;8575;52.418;13.492;2022-08-21T01:05:57;900.10;;;838.80;;
16916;SDS011;8575;52.418;13.492;2022-08-21T01:06:19;897.30;;;836.15;;
16916;SDS011;8575;52.418;13.492;2022-08-21T01:06:41;901.20;;;839.95;;
16916;SDS011;8575;52.418;13.492;2022-08-21T01:07:02;892.30;;;831.28;;
16916;SDS011;8575;52.418;13.492;2022-08-21T01:07:23;909.63;;;848.03;;
16916;SDS011;8575;52.418;13.492;2022-08-21T01:07:45;915.50;;;853.75;;
16916;SDS011;8575;52.418;13.492;2022-08-21T01:08:08;915.35;;;853.55;;
16916;SDS011;8575;52.418;13.492;2022-08-21T01:08:30;912.78;;;851.08;;
16916;SDS011;8575;52.418;13.492;2022-08-21T01:08:51;910.75;;;849.10;;
16916;SDS011;8575;52.418;13.492;2022-08-21T01:09:13;909.40;;;847.78;;
16916;SDS011;8575;52.418;13.492;2022-08-21T01:09:34;912.80;;;851.08;;
16916;SDS011;8575;52.418;13.492;2022-08-21T01:09:58;923.30;;;861.20;;
16916;SDS011;8575;52.418;13.492;2022-08-21T01:10:19;911.28;;;849.58;;
16916;SDS011;8575;52.418;13.492;2022-08-21T01:10:41;923.75;;;861.72;;
16916;SDS011;8575;52.418;13.492;2022-08-21T01:11:04;924.10;;;862.13;;
16916;SDS011;8575;52.418;13.492;2022-08-21T01:11:26;934.33;;;872.00;;
16916;SDS011;8575;52.418;13.492;2022-08-21T01:11:48;930.05;;;867.88;;
16916;SDS011;8575;52.418;13.492;2022-08-21T01:12:10;921.47;;;859.45;;
16916;SDS011;8575;52.418;13.492;2022-08-21T01:12:32;908.10;;;846.60;;
16916;SDS011;8575;52.418;13.492;2022-08-21T01:12:54;907.20;;;845.70;;
16916;SDS011;8575;52.418;13.492;2022-08-21T01:13:17;931.20;;;868.90;;
16916;SDS011;8575;52.418;13.492;2022-08-21T01:13:40;930.00;;;867.85;;
16916;SDS011;8575;52.418;13.492;2022-08-21T01:14:06;923.95;;;862.03;;
16916;SDS011;8575;52.418;13.492;2022-08-21T01:14:27;908.28;;;846.80;;
16916;SDS011;8575;52.418;13.492;2022-08-21T01:14:49;929.28;;;867.10;;
16916;SDS011;8575;52.418;13.492;2022-08-21T01:15:11;923.38;;;861.35;;
16916;SDS011;8575;52.418;13.492;2022-08-21T01:15:34;918.75;;;856.88;;
16916;SDS011;8575;52.418;13.492;2022-08-21T01:15:58;923.30;;;861.33;;
16916;SDS011;8575;52.418;13.492;2022-08-21T01:16:21;917.38;;;855.67;;
16916;SDS011;8575;52.418;13.492;2022-08-21T01:16:43;906.78;;;845.38;;
16916;SDS011;8575;52.418;13.492;2022-08-21T01:17:06;916.88;;;854.97;;
16916;SDS011;8575;52.418;13.492;2022-08-21T01:17:27;909.45;;;847.85;;
16916;SDS011;8575;52.418;13.492;2022-08-21T01:17:51;922.85;;;860.85;;
16916;SDS011;8575;52.418;13.492;2022-08-21T01:18:14;933.92;;;871.47;;
16916;SDS011;8575;52.418;13.492;2022-08-21T01:18:36;929.67;;;867.50;;
16916;SDS011;8575;52.418;13.492;2022-08-21T01:18:57;925.33;;;863.33;;
16916;SDS011;8575;52.418;13.492;2022-08-21T01:19:19;924.47;;;862.55;;
16916;SDS011;8575;52.418;13.492;2022-08-21T01:19:42;926.45;;;864.47;;
16916;SDS011;8575;52.418;13.492;2022-08-21T01:20:04;929.97;;;867.75;;
16916;SDS011;8575;52.418;13.492;2022-08-21T01:20:28;942.30;;;879.75;;
16916;SDS011;8575;52.418;13.492;2022-08-21T01:21:01;930.25;;;868.22;;
16916;SDS011;8575;52.418;13.492;2022-08-21T01:21:26;923.67;;;861.75;;
16916;SDS011;8575;52.418;13.492;2022-08-21T01:21:48;898.33;;;837.17;;
16916;SDS011;8575;52.418;13.492;2022-08-21T01:22:10;907.20;;;845.72;;
16916;SDS011;8575;52.418;13.492;2022-08-21T01:22:31;908.60;;;847.13;;
16916;SDS011;8575;52.418;13.492;2022-08-21T01:22:53;914.35;;;852.63;;
16916;SDS011;8575;52.418;13.492;2022-08-21T01:23:15;926.45;;;864.35;;
16916;SDS011;8575;52.418;13.492;2022-08-21T01:23:37;924.03;;;862.03;;
16916;SDS011;8575;52.418;13.492;2022-08-21T01:23:59;912.45;;;850.75;;
16916;SDS011;8575;52.418;13.492;2022-08-21T01:24:22;915.00;;;853.27;;
16916;SDS011;8575;52.418;13.492;2022-08-21T01:24:43;924.70;;;862.70;;
16916;SDS011;8575;52.418;13.492;2022-08-21T01:25:05;934.15;;;871.83;;
16916;SDS011;8575;52.418;13.492;2022-08-21T01:25:28;921.33;;;859.38;;
16916;SDS011;8575;52.418;13.492;2022-08-21T01:25:50;912.75;;;851.05;;
16916;SDS011;8575;52.418;13.492;2022-08-21T01:26:12;917.00;;;855.15;;
16916;SDS011;8575;52.418;13.492;2022-08-21T01:26:36;904.90;;;843.42;;
16916;SDS011;8575;52.418;13.492;2022-08-21T01:26:57;903.85;;;842.22;;
16916;SDS011;8575;52.418;13.492;2022-08-21T01:27:20;914.95;;;852.95;;
16916;SDS011;8575;52.418;13.492;2022-08-21T01:27:42;921.00;;;859.03;;
16916;SDS011;8575;52.418;13.492;2022-08-21T01:28:04;924.45;;;862.35;;
16916;SDS011;8575;52.418;13.492;2022-08-21T01:28:30;928.58;;;866.42;;
16916;SDS011;8575;52.418;13.492;2022-08-21T01:28:55;947.53;;;884.67;;
16916;SDS011;8575;52.418;13.492;2022-08-21T01:29:24;918.20;;;856.40;;
16916;SDS011;8575;52.418;13.492;2022-08-21T01:29:51;941.58;;;878.88;;
16916;SDS011;8575;52.418;13.492;2022-08-21T01:30:18;938.97;;;876.38;;
16916;SDS011;8575;52.418;13.492;2022-08-21T01:30:43;930.85;;;868.58;;
16916;SDS011;8575;52.418;13.492;2022-08-21T01:31:05;921.05;;;859.17;;
16916;SDS011;8575;52.418;13.492;2022-08-21T01:31:28;920.33;;;858.43;;
16916;SDS011;8575;52.418;13.492;2022-08-21T01:31:49;924.50;;;862.45;;
16916;SDS011;8575;52.418;13.492;2022-08-21T01:32:11;925.35;;;863.25;;
16916;SDS011;8575;52.418;13.492;2022-08-21T01:32:36;914.80;;;853.10;;
16916;SDS011;8575;52.418;13.492;2022-08-21T01:32:58;910.10;;;848.50;;
16916;SDS011;8575;52.418;13.492;2022-08-21T01:33:19;911.72;;;850.13;;
16916;SDS011;8575;52.418;13.492;2022-08-21T01:33:43;918.03;;;856.33;;
16916;SDS011;8575;52.418;13.492;2022-08-21T01:34:06;924.97;;;862.97;;
16916;SDS011;8575;52.418;13.492;2022-08-21T01:34:31;913.25;;;851.58;;
16916;SDS011;8575;52.418;13.492;2022-08-21T01:34:53;915.72;;;853.92;;
16916;SDS011;8575;52.418;13.492;2022-08-21T01:35:16;917.17;;;855.25;;
16916;SDS011;8575;52.418;13.492;2022-08-21T01:35:38;909.60;;;848.03;;
16916;SDS011;8575;52.418;13.492;2022-08-21T01:36:01;915.67;;;853.97;;
16916;SDS011;8575;52.418;13.492;2022-08-21T01:36:23;926.00;;;863.97;;
16916;SDS011;8575;52.418;13.492;2022-08-21T01:36:45;922.60;;;860.72;;
16916;SDS011;8575;52.418;13.492;2022-08-21T01:37:08;927.65;;;865.28;;
16916;SDS011;8575;52.418;13.492;2022-08-21T01:37:30;911.17;;;849.58;;
16916;SDS011;8575;52.418;13.492;2022-08-21T01:37:51;902.03;;;840.67;;
16916;SDS011;8575;52.418;13.492;2022-08-21T01:38:12;912.50;;;850.90;;
16916;SDS011;8575;52.418;13.492;2022-08-21T01:38:34;913.63;;;852.03;;
16916;SDS011;8575;52.418;13.492;2022-08-21T01:38:56;908.65;;;847.30;;
16916;SDS011;8575;52.418;13.492;2022-08-21T01:39:17;900.13;;;839.08;;
16916;SDS011;8575;52.418;13.492;2022-08-21T01:39:39;900.75;;;839.72;;
16916;SDS011;8575;52.418;13.492;2022-08-21T01:40:02;916.47;;;854.75;;
16916;SDS011;8575;52.418;13.492;2022-08-21T01:40:25;908.53;;;847.17;;
16916;SDS011;8575;52.418;13.492;2022-08-21T01:40:46;909.95;;;848.45;;
16916;SDS011;8575;52.418;13.492;2022-08-21T01:41:07;922.85;;;860.88;;
16916;SDS011;8575;52.418;13.492;2022-08-21T01:41:29;926.35;;;864.30;;
16916;SDS011;8575;52.418;13.492;2022-08-21T01:41:51;925.25;;;863.15;;
16916;SDS011;8575;52.418;13.492;2022-08-21T01:42:12;917.33;;;855.55;;
16916;SDS011;8575;52.418;13.492;2022-08-21T01:42:34;915.78;;;854.08;;
16916;SDS011;8575;52.418;13.492;2022-08-21T01:42:56;928.53;;;866.30;;
16916;SDS011;8575;52.418;13.492;2022-08-21T01:43:18;926.63;;;864.45;;
16916;SDS011;8575;52.418;13.492;2022-08-21T01:43:39;924.22;;;862.30;;
16916;SDS011;8575;52.418;13.492;2022-08-21T01:44:00;914.53;;;852.83;;
16916;SDS011;8575;52.418;13.492;2022-08-21T01:44:22;919.05;;;857.25;;
16916;SDS011;8575;52.418;13.492;2022-08-21T01:44:45;916.53;;;854.72;;
16916;SDS011;8575;52.418;13.492;2022-08-21T01:45:06;912.67;;;851.00;;
16916;SDS011;8575;52.418;13.492;2022-08-21T01:45:28;921.85;;;859.90;;
16916;SDS011;8575;52.418;13.492;2022-08-21T01:45:49;933.70;;;871.38;;
16916;SDS011;8575;52.418;13.492;2022-08-21T01:46:12;929.95;;;867.72;;
16916;SDS011;8575;52.418;13.492;2022-08-21T01:46:34;929.95;;;867.80;;
16916;SDS011;8575;52.418;13.492;2022-08-21T01:46:57;940.40;;;877.67;;
16916;SDS011;8575;52.418;13.492;2022-08-21T01:47:19;936.00;;;873.33;;
16916;SDS011;8575;52.418;13.492;2022-08-21T01:47:42;928.42;;;866.30;;
16916;SDS011;8575;52.418;13.492;2022-08-21T01:48:03;932.42;;;870.22;;
16916;SDS011;8575;52.418;13.492;2022-08-21T01:48:24;931.95;;;869.78;;
16916;SDS011;8575;52.418;13.492;2022-08-21T01:48:46;923.97;;;862.00;;
16916;SDS011;8575;52.418;13.492;2022-08-21T01:49:08;921.78;;;859.80;;
16916;SDS011;8575;52.418;13.492;2022-08-21T01:49:29;922.90;;;860.95;;
16916;SDS011;8575;52.418;13.492;2022-08-21T01:49:50;932.10;;;869.85;;
16916;SDS011;8575;52.418;13.492;2022-08-21T01:50:13;932.38;;;870.10;;
16916;SDS011;8575;52.418;13.492;2022-08-21T01:50:37;937.35;;;874.92;;
16916;SDS011;8575;52.418;13.492;2022-08-21T01:50:58;917.95;;;856.13;;
16916;SDS011;8575;52.418;13.492;2022-08-21T01:51:21;917.42;;;855.60;;
16916;SDS011;8575;52.418;13.492;2022-08-21T01:51:43;914.78;;;853.22;;
16916;SDS011;8575;52.418;13.492;2022-08-21T01:52:05;920.95;;;859.05;;
16916;SDS011;8575;52.418;13.492;2022-08-21T01:52:28;923.03;;;861.03;;
16916;SDS011;8575;52.418;13.492;2022-08-21T01:52:49;925.25;;;863.30;;
16916;SDS011;8575;52.418;13.492;2022-08-21T01:53:10;937.33;;;874.85;;
16916;SDS011;8575;52.418;13.492;2022-08-21T01:53:34;920.25;;;858.38;;
16916;SDS011;8575;52.418;13.492;2022-08-21T01:53:57;912.65;;;851.05;;
16916;SDS011;8575;52.418;13.492;2022-08-21T01:54:18;918.53;;;856.70;;
16916;SDS011;8575;52.418;13.492;2022-08-21T01:54:39;928.75;;;866.67;;
16916;SDS011;8575;52.418;13.492;2022-08-21T01:55:03;922.83;;;860.83;;
16916;SDS011;8575;52.418;13.492;2022-08-21T01:55:25;923.80;;;861.78;;
16916;SDS011;8575;52.418;13.492;2022-08-21T01:55:46;928.83;;;866.78;;
16916;SDS011;8575;52.418;13.492;2022-08-21T01:56:10;928.05;;;865.85;;
16916;SDS011;8575;52.418;13.492;2022-08-21T01:56:35;937.67;;;875.30;;
16916;SDS011;8575;52.418;13.492;2022-08-21T01:56:58;930.83;;;868.33;;
16916;SDS011;8575;52.418;13.492;2022-08-21T01:57:19;923.95;;;861.67;;
16916;SDS011;8575;52.418;13.492;2022-08-21T01:57:41;925.25;;;863.35;;
16916;SDS011;8575;52.418;13.492;2022-08-21T01:58:03;929.35;;;867.30;;
16916;SDS011;8575;52.418;13.492;2022-08-21T01:58:24;925.22;;;863.33;;
16916;SDS011;8575;52.418;13.492;2022-08-21T01:58:46;923.42;;;861.65;;
16916;SDS011;8575;52.418;13.492;2022-08-21T01:59:08;927.03;;;864.97;;
16916;SDS011;8575;52.418;13.492;2022-08-21T01:59:31;916.38;;;854.55;;
16916;SDS011;8575;52.418;13.492;2022-08-21T01:59:52;907.88;;;846.42;;
16916;SDS011;8575;52.418;13.492;2022-08-21T02:00:15;913.70;;;851.88;;
16916;SDS011;8575;52.418;13.492;2022-08-21T02:00:38;908.95;;;847.53;;
16916;SDS011;8575;52.418;13.492;2022-08-21T02:00:59;919.60;;;857.70;;
16916;SDS011;8575;52.418;13.492;2022-08-21T02:01:22;921.42;;;859.50;;
16916;SDS011;8575;52.418;13.492;2022-08-21T02:01:43;914.95;;;853.28;;
16916;SDS011;8575;52.418;13.492;2022-08-21T02:02:04;939.45;;;876.80;;
16916;SDS011;8575;52.418;13.492;2022-08-21T02:02:26;944.13;;;881.45;;
16916;SDS011;8575;52.418;13.492;2022-08-21T02:02:47;934.60;;;872.33;;
16916;SDS011;8575;52.418;13.492;2022-08-21T02:03:09;937.70;;;875.17;;
16916;SDS011;8575;52.418;13.492;2022-08-21T02:03:30;948.40;;;885.65;;
16916;SDS011;8575;52.418;13.492;2022-08-21T02:03:52;943.78;;;881.10;;
16916;SDS011;8575;52.418;13.492;2022-08-21T02:04:13;923.83;;;861.72;;
16916;SDS011;8575;52.418;13.492;2022-08-21T02:04:35;928.10;;;865.85;;
16916;SDS011;8575;52.418;13.492;2022-08-21T02:04:56;925.78;;;863.67;;
16916;SDS011;8575;52.418;13.492;2022-08-21T02:05:18;920.47;;;858.53;;
16916;SDS011;8575;52.418;13.492;2022-08-21T02:05:39;923.45;;;861.45;;
16916;SDS011;8575;52.418;13.492;2022-08-21T02:06:03;914.95;;;853.22;;
16916;SDS011;8575;52.418;13.492;2022-08-21T02:06:25;925.38;;;863.33;;
16916;SDS011;8575;52.418;13.492;2022-08-21T02:06:47;928.38;;;866.25;;